sensor_id;sensor_type;location;lat;lon;timestamp;pressure;altitude;pressure_sealevel;temperature;humidity
19286;BME280;9776;50.798;6.430;2023-11-21T00:01:24;99648.94;;;10.16;81.07
19286;BME280;9776;50.798;6.430;2023-11-21T00:03:51;99650.41;;;10.19;81.09
19286;BME280;9776;50.798;6.430;2023-11-21T00:06:20;99647.97;;;10.17;81.18
19286;BME280;9776;50.798;6.430;2023-11-21T00:08:47;99644.81;;;10.14;81.18
19286;BME280;9776;50.798;6.430;2023-11-21T00:11:13;99645.13;;;10.11;81.02
19286;BME280;9776;50.798;6.430;2023-11-21T00:13:39;99649.41;;;10.12;81.10
19286;BME280;9776;50.798;6.430;2023-11-21T00:16:12;99645.28;;;10.09;81.18
19286;BME280;9776;50.798;6.430;2023-11-21T00:18:39;99657.78;;;10.07;81.18
19286;BME280;9776;50.798;6.430;2023-11-21T00:21:06;99661.75;;;10.03;81.10
19286;BME280;9776;50.798;6.430;2023-11-21T00:23:33;99656.94;;;9.99;81.45
19286;BME280;9776;50.798;6.430;2023-11-21T00:26:00;99655.97;;;9.92;81.59
19286;BME280;9776;50.798;6.430;2023-11-21T00:28:26;99657.75;;;9.83;81.50
19286;BME280;9776;50.798;6.430;2023-11-21T00:30:53;99665.31;;;9.78;81.88
19286;BME280;9776;50.798;6.430;2023-11-21T00:33:21;99666.75;;;9.73;81.79
19286;BME280;9776;50.798;6.430;2023-11-21T00:35:48;99668.28;;;9.75;82.04
19286;BME280;9776;50.798;6.430;2023-11-21T00:38:15;99663.34;;;9.72;81.96
19286;BME280;9776;50.798;6.430;2023-11-21T00:40:45;99665.44;;;9.68;81.99
19286;BME280;9776;50.798;6.430;2023-11-21T00:43:12;99668.22;;;9.67;82.22
19286;BME280;9776;50.798;6.430;2023-11-21T00:45:40;99673.88;;;9.72;82.20
19286;BME280;9776;50.798;6.430;2023-11-21T00:48:07;99667.59;;;9.73;82.03
19286;BME280;9776;50.798;6.430;2023-11-21T00:50:35;99671.56;;;9.77;81.73
19286;BME280;9776;50.798;6.430;2023-11-21T00:53:02;99679.78;;;9.74;82.05
19286;BME280;9776;50.798;6.430;2023-11-21T00:55:29;99676.81;;;9.69;82.20
19286;BME280;9776;50.798;6.430;2023-11-21T00:57:56;99686.84;;;9.65;82.44
19286;BME280;9776;50.798;6.430;2023-11-21T01:00:23;99691.47;;;9.63;82.37
19286;BME280;9776;50.798;6.430;2023-11-21T01:02:50;99697.69;;;9.62;82.32
19286;BME280;9776;50.798;6.430;2023-11-21T01:05:16;99700.03;;;9.65;82.32
19286;BME280;9776;50.798;6.430;2023-11-21T01:07:44;99700.69;;;9.67;82.41
19286;BME280;9776;50.798;6.430;2023-11-21T01:10:11;99703.00;;;9.70;82.48
19286;BME280;9776;50.798;6.430;2023-11-21T01:12:38;99704.47;;;9.73;82.35
19286;BME280;9776;50.798;6.430;2023-11-21T01:15:06;99701.03;;;9.73;82.29
19286;BME280;9776;50.798;6.430;2023-11-21T01:17:34;99702.53;;;9.75;82.16
19286;BME280;9776;50.798;6.430;2023-11-21T01:20:01;99705.00;;;9.77;82.29
19286;BME280;9776;50.798;6.430;2023-11-21T01:22:28;99704.84;;;9.78;82.16
19286;BME280;9776;50.798;6.430;2023-11-21T01:24:58;99704.84;;;9.78;82.42
19286;BME280;9776;50.798;6.430;2023-11-21T01:27:24;99703.19;;;9.77;82.29
19286;BME280;9776;50.798;6.430;2023-11-21T01:29:52;99706.97;;;9.75;82.53
19286;BME280;9776;50.798;6.430;2023-11-21T01:32:19;99708.13;;;9.72;82.39
19286;BME280;9776;50.798;6.430;2023-11-21T01:34:47;99717.97;;;9.70;82.46
19286;BME280;9776;50.798;6.430;2023-11-21T01:37:14;99718.28;;;9.67;82.64
19286;BME280;9776;50.798;6.430;2023-11-21T01:39:42;99723.38;;;9.60;82.86
19286;BME280;9776;50.798;6.430;2023-11-21T01:42:11;99720.25;;;9.57;83.02
19286;BME280;9776;50.798;6.430;2023-11-21T01:44:39;99714.31;;;9.55;82.97
19286;BME280;9776;50.798;6.430;2023-11-21T01:47:06;99717.75;;;9.55;83.22
19286;BME280;9776;50.798;6.430;2023-11-21T01:49:33;99727.16;;;9.58;82.86
19286;BME280;9776;50.798;6.430;2023-11-21T01:52:01;99722.56;;;9.60;82.82
19286;BME280;9776;50.798;6.430;2023-11-21T01:54:28;99726.16;;;9.59;82.90
19286;BME280;9776;50.798;6.430;2023-11-21T01:56:57;99725.72;;;9.63;82.81
19286;BME280;9776;50.798;6.430;2023-11-21T01:59:34;99727.19;;;9.66;82.66
19286;BME280;9776;50.798;6.430;2023-11-21T02:02:02;99721.78;;;9.76;82.38
19286;BME280;9776;50.798;6.430;2023-11-21T02:04:30;99723.66;;;9.83;82.34
19286;BME280;9776;50.798;6.430;2023-11-21T02:06:58;99734.22;;;9.91;82.14
19286;BME280;9776;50.798;6.430;2023-11-21T02:09:26;99729.97;;;9.98;81.80
19286;BME280;9776;50.798;6.430;2023-11-21T02:11:53;99728.81;;;10.01;81.73
19286;BME280;9776;50.798;6.430;2023-11-21T02:14:20;99734.09;;;10.01;81.71
19286;BME280;9776;50.798;6.430;2023-11-21T02:16:49;99734.56;;;9.96;81.94
19286;BME280;9776;50.798;6.430;2023-11-21T02:19:18;99740.81;;;9.95;81.91
19286;BME280;9776;50.798;6.430;2023-11-21T02:21:49;99742.13;;;9.99;81.84
19286;BME280;9776;50.798;6.430;2023-11-21T02:24:18;99746.25;;;9.94;82.02
19286;BME280;9776;50.798;6.430;2023-11-21T02:26:46;99748.75;;;9.95;82.24
19286;BME280;9776;50.798;6.430;2023-11-21T02:29:12;99748.91;;;10.02;81.76
19286;BME280;9776;50.798;6.430;2023-11-21T02:31:43;99761.31;;;10.09;81.67
19286;BME280;9776;50.798;6.430;2023-11-21T02:34:13;99756.22;;;10.16;81.55
19286;BME280;9776;50.798;6.430;2023-11-21T02:36:40;99754.78;;;10.21;80.93
19286;BME280;9776;50.798;6.430;2023-11-21T02:39:08;99760.41;;;10.27;80.97
19286;BME280;9776;50.798;6.430;2023-11-21T02:41:36;99760.06;;;10.30;80.92
19286;BME280;9776;50.798;6.430;2023-11-21T02:44:04;99756.28;;;10.32;80.81
19286;BME280;9776;50.798;6.430;2023-11-21T02:46:31;99757.78;;;10.35;80.51
19286;BME280;9776;50.798;6.430;2023-11-21T02:48:59;99758.75;;;10.34;80.50
19286;BME280;9776;50.798;6.430;2023-11-21T02:51:26;99760.91;;;10.38;80.24
19286;BME280;9776;50.798;6.430;2023-11-21T02:53:52;99766.19;;;10.38;80.16
19286;BME280;9776;50.798;6.430;2023-11-21T02:56:19;99761.88;;;10.37;80.07
19286;BME280;9776;50.798;6.430;2023-11-21T02:58:48;99763.88;;;10.35;80.55
19286;BME280;9776;50.798;6.430;2023-11-21T03:01:14;99769.63;;;10.31;80.25
19286;BME280;9776;50.798;6.430;2023-11-21T03:03:42;99779.00;;;10.25;80.62
19286;BME280;9776;50.798;6.430;2023-11-21T03:06:13;99771.41;;;10.22;80.61
19286;BME280;9776;50.798;6.430;2023-11-21T03:08:39;99776.19;;;10.18;80.48
19286;BME280;9776;50.798;6.430;2023-11-21T03:11:07;99764.97;;;10.16;80.44
19286;BME280;9776;50.798;6.430;2023-11-21T03:13:34;99773.72;;;10.17;80.47
19286;BME280;9776;50.798;6.430;2023-11-21T03:16:03;99773.06;;;10.15;80.54
19286;BME280;9776;50.798;6.430;2023-11-21T03:18:30;99781.47;;;10.18;80.32
19286;BME280;9776;50.798;6.430;2023-11-21T03:20:57;99779.97;;;10.16;80.44
19286;BME280;9776;50.798;6.430;2023-11-21T03:23:24;99783.75;;;10.13;80.46
19286;BME280;9776;50.798;6.430;2023-11-21T03:25:50;99782.59;;;10.16;80.42
19286;BME280;9776;50.798;6.430;2023-11-21T03:28:17;99785.41;;;10.14;80.25
19286;BME280;9776;50.798;6.430;2023-11-21T03:30:44;99796.97;;;10.21;79.90
19286;BME280;9776;50.798;6.430;2023-11-21T03:33:12;99791.22;;;10.26;80.07
19286;BME280;9776;50.798;6.430;2023-11-21T03:35:39;99784.97;;;10.27;79.70
19286;BME280;9776;50.798;6.430;2023-11-21T03:38:07;99789.91;;;10.30;79.86
19286;BME280;9776;50.798;6.430;2023-11-21T03:40:34;99799.00;;;10.36;79.72
19286;BME280;9776;50.798;6.430;2023-11-21T03:43:00;99802.28;;;10.38;79.61
19286;BME280;9776;50.798;6.430;2023-11-21T03:45:27;99805.91;;;10.37;79.64
19286;BME280;9776;50.798;6.430;2023-11-21T03:47:54;99807.56;;;10.38;79.45
19286;BME280;9776;50.798;6.430;2023-11-21T03:50:31;99816.31;;;10.38;79.50
19286;BME280;9776;50.798;6.430;2023-11-21T03:52:58;99815.16;;;10.33;79.34
19286;BME280;9776;50.798;6.430;2023-11-21T03:55:24;99807.88;;;10.27;79.82
19286;BME280;9776;50.798;6.430;2023-11-21T03:57:51;99825.00;;;10.22;79.82
19286;BME280;9776;50.798;6.430;2023-11-21T04:00:19;99826.66;;;10.23;79.80
19286;BME280;9776;50.798;6.430;2023-11-21T04:02:46;99832.13;;;10.30;79.61
19286;BME280;9776;50.798;6.430;2023-11-21T04:05:13;99830.59;;;10.27;79.71
19286;BME280;9776;50.798;6.430;2023-11-21T04:07:41;99824.84;;;10.24;79.40
19286;BME280;9776;50.798;6.430;2023-11-21T04:10:09;99834.38;;;10.25;79.68
19286;BME280;9776;50.798;6.430;2023-11-21T04:12:38;99833.72;;;10.23;79.75
19286;BME280;9776;50.798;6.430;2023-11-21T04:15:06;99834.88;;;10.20;79.56
19286;BME280;9776;50.798;6.430;2023-11-21T04:17:35;99830.06;;;10.16;79.59
19286;BME280;9776;50.798;6.430;2023-11-21T04:20:02;99837.59;;;10.11;79.70
19286;BME280;9776;50.798;6.430;2023-11-21T04:22:33;99837.91;;;10.08;79.96
19286;BME280;9776;50.798;6.430;2023-11-21T04:25:02;99835.44;;;10.06;79.96
19286;BME280;9776;50.798;6.430;2023-11-21T04:27:29;99839.38;;;10.02;80.06
19286;BME280;9776;50.798;6.430;2023-11-21T04:29:56;99845.31;;;10.04;80.11
19286;BME280;9776;50.798;6.430;2023-11-21T04:32:22;99843.00;;;10.01;79.84
19286;BME280;9776;50.798;6.430;2023-11-21T04:34:49;99845.13;;;9.98;80.02
19286;BME280;9776;50.798;6.430;2023-11-21T04:37:16;99846.94;;;9.97;80.15
19286;BME280;9776;50.798;6.430;2023-11-21T04:39:43;99838.06;;;9.98;80.08
19286;BME280;9776;50.798;6.430;2023-11-21T04:42:11;99834.94;;;10.03;80.05
19286;BME280;9776;50.798;6.430;2023-11-21T04:44:38;99838.41;;;10.03;79.94
19286;BME280;9776;50.798;6.430;2023-11-21T04:47:06;99841.69;;;10.05;79.68
19286;BME280;9776;50.798;6.430;2023-11-21T04:49:33;99843.00;;;10.01;79.87
19286;BME280;9776;50.798;6.430;2023-11-21T04:52:00;99845.28;;;9.96;79.94
19286;BME280;9776;50.798;6.430;2023-11-21T04:54:30;99848.91;;;9.95;80.08
19286;BME280;9776;50.798;6.430;2023-11-21T04:56:57;99849.22;;;9.92;80.24
19286;BME280;9776;50.798;6.430;2023-11-21T04:59:25;99849.22;;;9.92;80.18
19286;BME280;9776;50.798;6.430;2023-11-21T05:01:52;99853.34;;;9.95;80.12
19286;BME280;9776;50.798;6.430;2023-11-21T05:04:19;99853.19;;;9.96;80.02
19286;BME280;9776;50.798;6.430;2023-11-21T05:06:47;99858.13;;;9.99;79.95
19286;BME280;9776;50.798;6.430;2023-11-21T05:09:15;99850.22;;;9.99;79.68
19286;BME280;9776;50.798;6.430;2023-11-21T05:11:41;99853.88;;;9.98;80.01
19286;BME280;9776;50.798;6.430;2023-11-21T05:14:08;99860.56;;;9.93;79.99
19286;BME280;9776;50.798;6.430;2023-11-21T05:16:37;99865.84;;;9.93;80.13
19286;BME280;9776;50.798;6.430;2023-11-21T05:19:04;99868.81;;;9.90;80.07
19286;BME280;9776;50.798;6.430;2023-11-21T05:21:32;99863.38;;;9.91;80.02
19286;BME280;9776;50.798;6.430;2023-11-21T05:23:59;99873.91;;;9.91;79.87
19286;BME280;9776;50.798;6.430;2023-11-21T05:26:25;99868.81;;;9.90;79.94
19286;BME280;9776;50.798;6.430;2023-11-21T05:28:53;99875.91;;;9.89;80.16
19286;BME280;9776;50.798;6.430;2023-11-21T05:31:19;99878.34;;;9.91;80.30
19286;BME280;9776;50.798;6.430;2023-11-21T05:33:48;99875.59;;;9.92;80.07
19286;BME280;9776;50.798;6.430;2023-11-21T05:36:14;99879.41;;;9.98;79.76
19286;BME280;9776;50.798;6.430;2023-11-21T05:38:41;99883.69;;;9.99;79.66
19286;BME280;9776;50.798;6.430;2023-11-21T05:41:08;99885.50;;;9.98;79.73
19286;BME280;9776;50.798;6.430;2023-11-21T05:43:38;99896.72;;;10.00;79.72
19286;BME280;9776;50.798;6.430;2023-11-21T05:46:05;99895.75;;;10.01;79.40
19286;BME280;9776;50.798;6.430;2023-11-21T05:48:34;99904.13;;;10.05;79.31
19286;BME280;9776;50.798;6.430;2023-11-21T05:51:04;99908.28;;;10.07;79.52
19286;BME280;9776;50.798;6.430;2023-11-21T05:53:30;99904.84;;;10.07;79.71
19286;BME280;9776;50.798;6.430;2023-11-21T05:55:57;99910.59;;;10.10;79.51
19286;BME280;9776;50.798;6.430;2023-11-21T05:58:24;99914.31;;;10.17;79.12
19286;BME280;9776;50.798;6.430;2023-11-21T06:00:51;99927.63;;;10.16;79.45
19286;BME280;9776;50.798;6.430;2023-11-21T06:03:18;99928.41;;;10.08;79.41
19286;BME280;9776;50.798;6.430;2023-11-21T06:05:45;99929.06;;;10.10;79.59
19286;BME280;9776;50.798;6.430;2023-11-21T06:08:13;99930.06;;;10.09;79.61
19286;BME280;9776;50.798;6.430;2023-11-21T06:10:42;99934.50;;;10.09;79.66
19286;BME280;9776;50.798;6.430;2023-11-21T06:13:09;99936.97;;;10.10;79.64
19286;BME280;9776;50.798;6.430;2023-11-21T06:15:36;99949.19;;;10.11;79.30
19286;BME280;9776;50.798;6.430;2023-11-21T06:18:03;99943.38;;;10.08;79.37
19286;BME280;9776;50.798;6.430;2023-11-21T06:20:35;99953.56;;;10.03;79.54
19286;BME280;9776;50.798;6.430;2023-11-21T06:23:03;99956.22;;;10.03;79.66
19286;BME280;9776;50.798;6.430;2023-11-21T06:25:32;99955.06;;;10.05;79.69
19286;BME280;9776;50.798;6.430;2023-11-21T06:28:01;99956.56;;;10.08;79.39
19286;BME280;9776;50.798;6.430;2023-11-21T06:30:28;99965.94;;;10.02;79.50
19286;BME280;9776;50.798;6.430;2023-11-21T06:32:55;99966.09;;;10.01;79.85
19286;BME280;9776;50.798;6.430;2023-11-21T06:35:25;99968.22;;;9.97;79.80
19286;BME280;9776;50.798;6.430;2023-11-21T06:37:53;99969.34;;;9.95;79.85
19286;BME280;9776;50.798;6.430;2023-11-21T06:40:22;99971.16;;;9.94;79.91
19286;BME280;9776;50.798;6.430;2023-11-21T06:42:52;99967.06;;;10.00;79.73
19286;BME280;9776;50.798;6.430;2023-11-21T06:45:19;99975.50;;;10.03;79.64
19286;BME280;9776;50.798;6.430;2023-11-21T06:47:46;99976.69;;;10.09;79.50
19286;BME280;9776;50.798;6.430;2023-11-21T06:50:14;99980.56;;;10.14;79.26
19286;BME280;9776;50.798;6.430;2023-11-21T06:52:41;99988.28;;;10.16;79.40
19286;BME280;9776;50.798;6.430;2023-11-21T06:55:08;99987.06;;;10.10;79.55
19286;BME280;9776;50.798;6.430;2023-11-21T06:57:36;99989.72;;;10.10;79.62
19286;BME280;9776;50.798;6.430;2023-11-21T07:00:06;99994.00;;;10.11;79.54
19286;BME280;9776;50.798;6.430;2023-11-21T07:02:34;99995.41;;;10.15;79.27
19286;BME280;9776;50.798;6.430;2023-11-21T07:05:01;100006.63;;;10.17;79.15
19286;BME280;9776;50.798;6.430;2023-11-21T07:07:29;100010.75;;;10.20;79.31
19286;BME280;9776;50.798;6.430;2023-11-21T07:09:58;100014.75;;;10.24;79.08
19286;BME280;9776;50.798;6.430;2023-11-21T07:12:28;100007.31;;;10.27;79.00
19286;BME280;9776;50.798;6.430;2023-11-21T07:14:59;100018.56;;;10.30;78.99
19286;BME280;9776;50.798;6.430;2023-11-21T07:17:29;100012.78;;;10.26;78.93
19286;BME280;9776;50.798;6.430;2023-11-21T07:19:56;100020.81;;;10.24;79.12
19286;BME280;9776;50.798;6.430;2023-11-21T07:22:23;100021.81;;;10.23;79.18
19286;BME280;9776;50.798;6.430;2023-11-21T07:24:51;100033.34;;;10.22;79.33
19286;BME280;9776;50.798;6.430;2023-11-21T07:27:17;100036.19;;;10.29;79.07
19286;BME280;9776;50.798;6.430;2023-11-21T07:29:47;100038.84;;;10.29;79.18
19286;BME280;9776;50.798;6.430;2023-11-21T07:32:17;100038.53;;;10.32;78.99
19286;BME280;9776;50.798;6.430;2023-11-21T07:34:46;100041.31;;;10.31;79.12
19286;BME280;9776;50.798;6.430;2023-11-21T07:37:13;100040.66;;;10.29;79.12
19286;BME280;9776;50.798;6.430;2023-11-21T07:39:40;100041.31;;;10.31;79.22
19286;BME280;9776;50.798;6.430;2023-11-21T07:42:08;100042.00;;;10.33;79.06
19286;BME280;9776;50.798;6.430;2023-11-21T07:44:36;100048.28;;;10.40;78.76
19286;BME280;9776;50.798;6.430;2023-11-21T07:47:03;100046.66;;;10.39;78.73
19286;BME280;9776;50.798;6.430;2023-11-21T07:49:30;100049.97;;;10.41;79.03
19286;BME280;9776;50.798;6.430;2023-11-21T07:51:58;100053.78;;;10.46;78.73
19286;BME280;9776;50.798;6.430;2023-11-21T07:54:25;100060.22;;;10.44;78.71
19286;BME280;9776;50.798;6.430;2023-11-21T07:56:53;100058.91;;;10.48;78.81
19286;BME280;9776;50.798;6.430;2023-11-21T07:59:20;100071.13;;;10.49;78.66
19286;BME280;9776;50.798;6.430;2023-11-21T08:01:46;100070.50;;;10.55;78.88
19286;BME280;9776;50.798;6.430;2023-11-21T08:04:13;100073.50;;;10.60;78.48
19286;BME280;9776;50.798;6.430;2023-11-21T08:06:40;100085.25;;;10.65;78.21
19286;BME280;9776;50.798;6.430;2023-11-21T08:09:08;100089.53;;;10.66;78.27
19286;BME280;9776;50.798;6.430;2023-11-21T08:11:37;100094.16;;;10.64;78.37
19286;BME280;9776;50.798;6.430;2023-11-21T08:14:04;100098.28;;;10.67;78.31
19286;BME280;9776;50.798;6.430;2023-11-21T08:16:31;100102.97;;;10.73;78.19
19286;BME280;9776;50.798;6.430;2023-11-21T08:18:58;100103.31;;;10.78;77.97
19286;BME280;9776;50.798;6.430;2023-11-21T08:21:25;100107.44;;;10.80;77.86
19286;BME280;9776;50.798;6.430;2023-11-21T08:23:56;100109.78;;;10.83;77.73
19286;BME280;9776;50.798;6.430;2023-11-21T08:26:26;100110.13;;;10.89;77.83
19286;BME280;9776;50.798;6.430;2023-11-21T08:28:53;100116.91;;;10.91;77.60
19286;BME280;9776;50.798;6.430;2023-11-21T08:31:25;100118.25;;;10.95;77.29
19286;BME280;9776;50.798;6.430;2023-11-21T08:33:52;100121.56;;;10.97;77.54
19286;BME280;9776;50.798;6.430;2023-11-21T08:36:20;100133.47;;;11.01;77.44
19286;BME280;9776;50.798;6.430;2023-11-21T08:38:48;100130.34;;;11.06;77.39
19286;BME280;9776;50.798;6.430;2023-11-21T08:41:18;100130.88;;;11.09;77.10
19286;BME280;9776;50.798;6.430;2023-11-21T08:46:15;100147.06;;;11.14;76.75
19286;BME280;9776;50.798;6.430;2023-11-21T08:48:42;100143.63;;;11.14;76.75
19286;BME280;9776;50.798;6.430;2023-11-21T08:51:10;100145.59;;;11.20;76.59
19286;BME280;9776;50.798;6.430;2023-11-21T08:53:39;100150.75;;;11.21;76.62
19286;BME280;9776;50.798;6.430;2023-11-21T08:56:07;100148.56;;;11.17;76.78
19286;BME280;9776;50.798;6.430;2023-11-21T08:58:34;100155.31;;;11.11;77.06
19286;BME280;9776;50.798;6.430;2023-11-21T09:01:04;100158.25;;;11.08;77.16
19286;BME280;9776;50.798;6.430;2023-11-21T09:03:31;100152.63;;;11.03;76.99
19286;BME280;9776;50.798;6.430;2023-11-21T09:05:59;100161.56;;;11.02;77.30
19286;BME280;9776;50.798;6.430;2023-11-21T09:08:26;100156.09;;;11.04;77.15
19286;BME280;9776;50.798;6.430;2023-11-21T09:10:54;100161.25;;;11.05;77.28
19286;BME280;9776;50.798;6.430;2023-11-21T09:13:21;100155.97;;;11.05;77.26
19286;BME280;9776;50.798;6.430;2023-11-21T09:15:50;100159.47;;;11.14;76.89
19286;BME280;9776;50.798;6.430;2023-11-21T09:18:18;100167.97;;;11.25;76.85
19286;BME280;9776;50.798;6.430;2023-11-21T09:20:45;100178.06;;;11.38;76.56
19286;BME280;9776;50.798;6.430;2023-11-21T09:23:12;100177.25;;;11.37;76.57
19286;BME280;9776;50.798;6.430;2023-11-21T09:25:39;100178.59;;;11.42;76.39
19286;BME280;9776;50.798;6.430;2023-11-21T09:28:06;100187.03;;;11.45;76.39
19286;BME280;9776;50.798;6.430;2023-11-21T09:30:33;100186.88;;;11.47;76.05
19286;BME280;9776;50.798;6.430;2023-11-21T09:33:00;100186.56;;;11.50;76.20
19286;BME280;9776;50.798;6.430;2023-11-21T09:35:28;100188.88;;;11.53;76.34
19286;BME280;9776;50.798;6.430;2023-11-21T09:37:55;100195.97;;;11.52;76.08
19286;BME280;9776;50.798;6.430;2023-11-21T09:40:22;100204.72;;;11.53;76.00
19286;BME280;9776;50.798;6.430;2023-11-21T09:42:54;100203.03;;;11.44;76.26
19286;BME280;9776;50.798;6.430;2023-11-21T09:45:25;100206.16;;;11.39;76.42
19286;BME280;9776;50.798;6.430;2023-11-21T09:47:53;100202.66;;;11.30;76.80
19286;BME280;9776;50.798;6.430;2023-11-21T09:50:21;100203.63;;;11.29;76.68
19286;BME280;9776;50.798;6.430;2023-11-21T09:52:55;100203.28;;;11.24;76.91
19286;BME280;9776;50.798;6.430;2023-11-21T09:55:27;100208.25;;;11.27;76.69
19286;BME280;9776;50.798;6.430;2023-11-21T09:57:56;100206.13;;;11.31;76.90
19286;BME280;9776;50.798;6.430;2023-11-21T10:00:23;100207.41;;;11.27;76.90
19286;BME280;9776;50.798;6.430;2023-11-21T10:02:53;100207.41;;;11.27;76.82
19286;BME280;9776;50.798;6.430;2023-11-21T10:05:20;100197.38;;;11.30;76.94
19286;BME280;9776;50.798;6.430;2023-11-21T10:07:51;100206.00;;;11.40;76.55
19286;BME280;9776;50.798;6.430;2023-11-21T10:10:19;100208.53;;;11.50;76.36
19286;BME280;9776;50.798;6.430;2023-11-21T10:12:49;100204.75;;;11.61;76.32
19286;BME280;9776;50.798;6.430;2023-11-21T10:15:21;100206.50;;;11.78;75.82
19286;BME280;9776;50.798;6.430;2023-11-21T10:17:49;100216.66;;;11.90;75.42
19286;BME280;9776;50.798;6.430;2023-11-21T10:20:19;100208.72;;;11.99;75.32
19286;BME280;9776;50.798;6.430;2023-11-21T10:22:48;100216.03;;;12.13;75.01
19286;BME280;9776;50.798;6.430;2023-11-21T10:25:18;100217.72;;;12.30;74.76
19286;BME280;9776;50.798;6.430;2023-11-21T10:27:48;100217.59;;;12.56;73.83
19286;BME280;9776;50.798;6.430;2023-11-21T10:30:17;100208.00;;;12.79;73.70
19286;BME280;9776;50.798;6.430;2023-11-21T10:32:43;100209.16;;;12.92;72.96
19286;BME280;9776;50.798;6.430;2023-11-21T10:35:10;100211.63;;;12.94;72.93
19286;BME280;9776;50.798;6.430;2023-11-21T10:37:38;100214.25;;;13.02;72.73
19286;BME280;9776;50.798;6.430;2023-11-21T10:40:06;100215.94;;;12.95;72.94
19286;BME280;9776;50.798;6.430;2023-11-21T10:42:35;100217.28;;;12.75;73.72
19286;BME280;9776;50.798;6.430;2023-11-21T10:45:03;100220.72;;;12.67;73.47
19286;BME280;9776;50.798;6.430;2023-11-21T10:47:35;100218.41;;;12.64;73.46
19286;BME280;9776;50.798;6.430;2023-11-21T10:50:04;100216.59;;;12.65;73.44
19286;BME280;9776;50.798;6.430;2023-11-21T10:52:31;100215.28;;;12.77;73.10
19286;BME280;9776;50.798;6.430;2023-11-21T10:54:58;100214.94;;;12.96;72.61
19286;BME280;9776;50.798;6.430;2023-11-21T10:57:29;100213.94;;;13.05;72.19
19286;BME280;9776;50.798;6.430;2023-11-21T10:59:58;100223.53;;;13.06;71.96
19286;BME280;9776;50.798;6.430;2023-11-21T11:02:25;100219.56;;;13.02;72.01
19286;BME280;9776;50.798;6.430;2023-11-21T11:04:54;100221.25;;;12.87;72.10
19286;BME280;9776;50.798;6.430;2023-11-21T11:07:25;100213.97;;;12.89;71.84
19286;BME280;9776;50.798;6.430;2023-11-21T11:09:53;100219.56;;;13.02;71.88
19286;BME280;9776;50.798;6.430;2023-11-21T11:12:19;100223.88;;;13.11;71.25
19286;BME280;9776;50.798;6.430;2023-11-21T11:14:46;100224.03;;;13.26;70.99
19286;BME280;9776;50.798;6.430;2023-11-21T11:17:16;100235.41;;;13.42;70.35
19286;BME280;9776;50.798;6.430;2023-11-21T11:19:46;100229.28;;;13.50;69.71
19286;BME280;9776;50.798;6.430;2023-11-21T11:22:27;100239.66;;;13.59;69.25
19286;BME280;9776;50.798;6.430;2023-11-21T11:25:24;100232.13;;;13.40;69.74
19286;BME280;9776;50.798;6.430;2023-11-21T11:27:54;100236.91;;;13.37;69.85
19286;BME280;9776;50.798;6.430;2023-11-21T11:30:38;100234.78;;;13.40;69.38
19286;BME280;9776;50.798;6.430;2023-11-21T11:33:15;100229.81;;;13.37;69.50
19286;BME280;9776;50.798;6.430;2023-11-21T11:35:56;100234.94;;;13.47;68.94
19286;BME280;9776;50.798;6.430;2023-11-21T11:38:31;100241.34;;;13.60;68.82
19286;BME280;9776;50.798;6.430;2023-11-21T11:41:01;100247.63;;;13.59;68.52
19286;BME280;9776;50.798;6.430;2023-11-21T11:43:29;100247.19;;;13.40;69.17
19286;BME280;9776;50.798;6.430;2023-11-21T11:45:58;100250.34;;;13.43;68.91
19286;BME280;9776;50.798;6.430;2023-11-21T11:48:26;100250.63;;;13.64;68.63
19286;BME280;9776;50.798;6.430;2023-11-21T11:51:03;100257.06;;;13.70;68.09
19286;BME280;9776;50.798;6.430;2023-11-21T11:53:35;100262.16;;;13.80;67.84
19286;BME280;9776;50.798;6.430;2023-11-21T11:56:23;100257.19;;;13.85;67.49
19286;BME280;9776;50.798;6.430;2023-11-21T11:58:51;100258.06;;;14.00;67.38
19286;BME280;9776;50.798;6.430;2023-11-21T12:01:19;100250.09;;;14.08;66.88
19286;BME280;9776;50.798;6.430;2023-11-21T12:06:51;100263.91;;;14.26;66.11
19286;BME280;9776;50.798;6.430;2023-11-21T12:09:19;100261.59;;;14.31;66.11
19286;BME280;9776;50.798;6.430;2023-11-21T12:11:46;100274.59;;;14.18;65.94
19286;BME280;9776;50.798;6.430;2023-11-21T12:14:14;100263.69;;;14.13;66.35
19286;BME280;9776;50.798;6.430;2023-11-21T12:16:41;100266.41;;;14.28;65.56
19286;BME280;9776;50.798;6.430;2023-11-21T12:19:08;100270.81;;;14.43;65.19
19286;BME280;9776;50.798;6.430;2023-11-21T12:21:36;100268.72;;;14.61;64.53
19286;BME280;9776;50.798;6.430;2023-11-21T12:24:08;100271.25;;;14.77;63.86
19286;BME280;9776;50.798;6.430;2023-11-21T12:26:39;100268.84;;;14.91;63.87
19286;BME280;9776;50.798;6.430;2023-11-21T12:29:06;100262.44;;;15.00;63.32
19286;BME280;9776;50.798;6.430;2023-11-21T12:31:37;100264.38;;;15.06;63.20
19286;BME280;9776;50.798;6.430;2023-11-21T12:34:07;100267.13;;;15.12;62.92
19286;BME280;9776;50.798;6.430;2023-11-21T12:36:37;100270.41;;;15.00;63.36
19286;BME280;9776;50.798;6.430;2023-11-21T12:39:07;100268.47;;;14.94;63.30
19286;BME280;9776;50.798;6.430;2023-11-21T12:41:36;100277.56;;;14.99;63.32
19286;BME280;9776;50.798;6.430;2023-11-21T12:44:11;100277.19;;;15.40;62.21
19286;BME280;9776;50.798;6.430;2023-11-21T12:46:42;100279.56;;;15.34;62.20
19286;BME280;9776;50.798;6.430;2023-11-21T12:49:10;100279.34;;;15.21;62.36
19286;BME280;9776;50.798;6.430;2023-11-21T12:51:42;100294.34;;;15.00;63.00
19286;BME280;9776;50.798;6.430;2023-11-21T12:54:11;100297.31;;;14.82;63.35
19286;BME280;9776;50.798;6.430;2023-11-21T12:56:39;100299.28;;;14.57;63.37
19286;BME280;9776;50.798;6.430;2023-11-21T12:59:06;100300.03;;;14.43;63.77
19286;BME280;9776;50.798;6.430;2023-11-21T13:01:36;100306.72;;;14.39;64.06
19286;BME280;9776;50.798;6.430;2023-11-21T13:04:11;100298.56;;;14.41;63.78
19286;BME280;9776;50.798;6.430;2023-11-21T13:06:38;100310.56;;;14.59;63.61
19286;BME280;9776;50.798;6.430;2023-11-21T13:09:06;100307.56;;;14.62;63.15
19286;BME280;9776;50.798;6.430;2023-11-21T13:11:37;100313.09;;;14.53;63.54
19286;BME280;9776;50.798;6.430;2023-11-21T13:14:06;100315.03;;;14.36;63.59
19286;BME280;9776;50.798;6.430;2023-11-21T13:16:33;100309.63;;;14.05;64.25
19286;BME280;9776;50.798;6.430;2023-11-21T13:19:02;100315.47;;;14.01;64.48